• Join FlightAware (Why Join?)
  • Login
  • US Flag 
06:28AM EDT


 

Airport Tracker/Info


-or-


 

Live Flight TrackerFlight Track Log ✈ UAL1206 ✈ 21-May-2013 ✈ KMCO - KEWR

Flight Track Log - Related Links

Times and Time Zones

All times are in EDT time to prevent confusion due to time zone crossing. See the UAL1206 flight status page for this flight to view local times or setup timezone preferences in your user account.

Time Position Orientation Groundspeed Altitude Reporting Facility
EDT Latitude Longitude Course Direction KTS MPH feet Rate Location/Type
12:53PM 28.7432 -81.3400 354° North  Level FlightAware Approximate
12:54PM 28.8539 -81.3521 355° North  Level FlightAware Approximate
12:55PM 28.9647 -81.3631 355° North  Level FlightAware Approximate
12:56PM 29.0747 -81.3816 350° North  Level FlightAware Approximate
12:56PM 28.3830 -81.4430 350° North 292 336 8,100  Level FlightAware
12:56PM 28.4150 -81.4190 33° Northeast 294 338 9,300 2,940 Climbing FlightAware
12:57PM 28.4730 -81.3810 30° Northeast 317 365 11,300 2,400 Climbing FlightAware
12:58PM 28.5310 -81.3440 29° Northeast 345 397 12,700 2,100 Climbing FlightAware
12:58PM 28.5580 -81.3380 11° North 349 402 13,400 2,520 Climbing FlightAware
12:58PM 28.5950 -81.3400 357° North 352 405 14,400 2,100 Climbing FlightAware
12:59PM 28.6550 -81.3450 356° North 366 421 15,700 2,400 Climbing FlightAware
12:59PM 28.7190 -81.3210 18° North 371 427 17,200 2,880 Climbing FlightAware
01:00PM 28.7880 -81.2530 41° Northeast 375 432 19,100 1,680 Climbing FlightAware
01:01PM 28.8510 -81.1930 40° Northeast 375 432 19,600 300 Climbing FlightAware
01:02PM 28.8940 -81.1480 42° Northeast 375 432 19,600  Level FlightAware
01:02PM 28.9380 -81.1030 42° Northeast 375 432 19,600  Level FlightAware
01:03PM 28.9820 -81.0580 42° Northeast 375 432 19,600  Level FlightAware
01:04PM 29.0370 -81.0010 42° Northeast 375 432 19,600 5,880 Level FlightAware
01:04PM 29.2892 -81.2331 42° Northeast 408 470 26,400 2,220 Climbing Jacksonville Center
01:09PM 29.9820 -81.3040 42° Northeast 468 539 32,600 1,080 Climbing FlightAware
01:10PM 30.0950 -81.3160 355° North 464 534 33,400 1,080 Climbing FlightAware
01:11PM 30.1960 -81.3260 355° North 462 532 34,500 1,080 Climbing FlightAware
01:12PM 30.2890 -81.3360 355° North 463 533 35,000 360 Climbing FlightAware
01:12PM 30.3680 -81.3440 355° North 464 534 35,000  Level FlightAware
01:13PM 30.4610 -81.3540 355° North 463 533 35,000  Level FlightAware
01:14PM 30.5400 -81.3620 355° North 461 531 35,000  Level FlightAware
01:15PM 30.6430 -81.3730 355° North 460 529 35,000  Level FlightAware
01:15PM 30.5930 -81.3680 175° South 459 528 35,000  Level FlightAware
01:16PM 30.5930 -81.3680 175° South 458 527 35,000  Level FlightAware
01:17PM 30.6760 -81.3760 355° North 458 527 35,000  Level FlightAware
01:17PM 30.7470 -81.3830 355° North 458 527 35,000  Level FlightAware
01:18PM 30.8370 -81.3920 355° North 458 527 35,000  Level FlightAware
01:20PM 31.2250 -81.4310 355° North 456 525 35,000  Level FlightAware
01:20PM 31.2890 -81.4250 North 456 525 35,000  Level FlightAware
01:21PM 31.3830 -81.4010 12° North 455 524 35,000  Level FlightAware
01:22PM 31.4820 -81.3760 12° North 454 522 35,000  Level FlightAware
01:22PM 31.5730 -81.3320 22° Northeast 454 522 35,000  Level FlightAware
01:23PM 31.6430 -81.2880 28° Northeast 454 522 35,000  Level FlightAware
01:24PM 31.7260 -81.2380 27° Northeast 455 524 35,000  Level FlightAware
01:24PM 31.8020 -81.1920 27° Northeast 457 526 35,000  Level FlightAware
01:25PM 31.8900 -81.1370 28° Northeast 458 527 35,000  Level FlightAware
01:26PM 31.9630 -81.0920 28° Northeast 458 527 35,000  Level FlightAware
01:27PM 32.0490 -81.0400 27° Northeast 457 526 35,000  Level FlightAware
01:27PM 32.1240 -80.9940 27° Northeast 457 526 35,000  Level FlightAware
01:28PM 32.1970 -80.9480 28° Northeast 456 525 35,000  Level FlightAware
01:29PM 32.2870 -80.8930 27° Northeast 455 524 35,000  Level FlightAware
01:29PM 32.3650 -80.8520 24° Northeast 454 522 35,000  Level FlightAware
01:31PM 32.5720 -80.8160 North 454 522 35,000  Level FlightAware
01:31PM 32.6570 -80.8020 North 455 524 35,000  Level FlightAware
01:32PM 32.7500 -80.7720 15° North 454 522 35,000  Level FlightAware
01:33PM 32.8240 -80.7400 20° North 455 524 35,000  Level FlightAware
01:34PM 32.9050 -80.6970 24° Northeast 455 524 35,000  Level FlightAware
01:34PM 32.9850 -80.6360 33° Northeast 456 525 35,000  Level FlightAware
01:35PM 33.0520 -80.5830 34° Northeast 456 525 35,000  Level FlightAware
01:36PM 33.1300 -80.5230 33° Northeast 455 524 35,000  Level FlightAware
01:36PM 33.2040 -80.4660 33° Northeast 456 525 35,000  Level FlightAware
01:37PM 33.2730 -80.4120 33° Northeast 457 526 35,000  Level FlightAware
01:38PM 33.3550 -80.3480 33° Northeast 458 527 35,000  Level FlightAware
01:38PM 33.4270 -80.2930 33° Northeast 459 528 35,000  Level FlightAware
01:39PM 33.4960 -80.2390 33° Northeast 460 529 35,000 -120 Level FlightAware
01:40PM 33.5900 -80.1700 33° Northeast 454 522 34,900  Descending Jacksonville Center
01:41PM 33.6967 -80.0842 34° Northeast 454 522 35,000  Climbing Jacksonville Center
01:42PM 33.8011 -80.0008 34° Northeast 454 522 34,900  Descending Jacksonville Center
01:43PM 33.9078 -79.9175 33° Northeast 449 517 35,000  Climbing Jacksonville Center
01:44PM 34.0122 -79.8361 33° Northeast 455 524 34,900  Descending Jacksonville Center
01:45PM 34.1186 -79.7472 35° Northeast 449 517 35,000  Climbing Jacksonville Center
01:51PM 34.6810 -79.2260 35° Northeast 455 524 35,000  Level FlightAware
01:52PM 34.8660 -79.1380 21° North 449 517 35,000  Level FlightAware
01:53PM 34.9460 -79.1000 21° North 448 516 35,000  Level FlightAware
01:54PM 35.0600 -79.0340 25° Northeast 459 528 35,000  Level FlightAware
01:55PM 35.1260 -78.9770 35° Northeast 455 524 35,000  Level FlightAware
01:55PM 35.2070 -78.9000 38° Northeast 456 525 35,000  Level FlightAware
01:56PM 35.2720 -78.8390 37° Northeast 457 526 35,000  Level FlightAware
01:57PM 35.3600 -78.7910 24° Northeast 460 529 35,000  Level FlightAware
01:57PM 35.4430 -78.7550 19° North 462 532 35,000  Level FlightAware
01:58PM 35.5240 -78.7200 19° North 462 532 35,000  Level FlightAware
01:59PM 35.6140 -78.6820 19° North 464 534 35,000  Level FlightAware
02:00PM 35.7050 -78.6430 19° North 461 531 35,000  Level FlightAware
02:00PM 35.7860 -78.6070 20° North 460 529 35,000  Level FlightAware
02:01PM 35.8560 -78.5760 20° North 464 534 35,000  Level FlightAware
02:02PM 35.9470 -78.5360 20° North 462 532 35,000  Level FlightAware
02:02PM 36.0410 -78.4950 19° North 462 532 35,000  Level FlightAware
02:03PM 36.1230 -78.4590 20° North 466 536 35,000  Level FlightAware
02:04PM 36.2150 -78.4180 20° North 474 545 35,000  Level FlightAware
02:04PM 36.2990 -78.3810 20° North 475 547 35,000  Level FlightAware
02:05PM 36.3790 -78.3460 19° North 476 548 35,000  Level FlightAware
02:06PM 36.4730 -78.3040 20° North 475 547 35,000  Level FlightAware
02:06PM 36.5470 -78.2720 19° North 476 548 35,000  Level FlightAware
02:07PM 36.6440 -78.2290 20° North 476 548 35,000  Level FlightAware
02:07PM 36.6360 -78.2320 197° South 35,000  Level FlightAware
02:09PM 36.8520 -78.0930 27° Northeast 479 551 35,000  Level FlightAware
02:10PM 36.9600 -78.0170 29° Northeast 478 550 35,000  Level FlightAware
02:11PM 37.0440 -77.9570 30° Northeast 477 549 35,000  Level FlightAware
02:12PM 37.1480 -77.8820 30° Northeast 467 537 35,000  Level FlightAware
02:13PM 37.2650 -77.7990 29° Northeast 470 541 35,000  Level FlightAware
02:13PM 37.3440 -77.7420 30° Northeast 468 539 35,000  Level FlightAware
02:14PM 37.4290 -77.6820 29° Northeast 465 535 35,000  Level FlightAware
02:15PM 37.5030 -77.6280 30° Northeast 464 534 35,000  Level FlightAware
02:15PM 37.5860 -77.5680 30° Northeast 461 531 35,000  Level FlightAware
02:16PM 37.6610 -77.5140 30° Northeast 460 529 35,000  Level FlightAware
02:17PM 37.7350 -77.4600 30° Northeast 460 529 35,000  Level FlightAware
02:17PM 37.8080 -77.4070 30° Northeast 459 528 35,000  Level FlightAware
02:18PM 37.8890 -77.3480 30° Northeast 461 531 35,000  Level FlightAware
02:19PM 37.9620 -77.2950 30° Northeast 462 532 35,000  Level FlightAware
02:20PM 38.0470 -77.2330 30° Northeast 463 533 35,000  Level FlightAware
02:20PM 38.1085 -77.1876 30° Northeast 464 534 35,000  Level FlightAware ADS-B
02:21PM 38.1757 -77.1383 30° Northeast 466 536 35,000  Level FlightAware ADS-B
02:21PM 38.2384 -77.0922 30° Northeast 467 537 35,000  Level FlightAware ADS-B
02:22PM 38.3110 -77.0386 30° Northeast 467 537 35,000  Level FlightAware ADS-B
02:22PM 38.3650 -76.9990 30° Northeast 467 537 35,000  Level FlightAware
02:23PM 38.4099 -76.9654 30° Northeast 468 539 35,000  Level FlightAware ADS-B
02:23PM 38.4686 -76.9219 30° Northeast 468 539 35,000  Level FlightAware ADS-B
02:24PM 38.5308 -76.8754 30° Northeast 468 539 35,000  Level FlightAware ADS-B
02:24PM 38.5978 -76.8254 30° Northeast 469 540 35,000  Level FlightAware ADS-B
02:25PM 38.6572 -76.7812 30° Northeast 468 539 35,000  Level FlightAware ADS-B
02:25PM 38.6884 -76.7573 31° Northeast 469 540 35,000  Level FlightAware ADS-B
02:26PM 38.7529 -76.6912 39° Northeast 469 540 35,000  Level FlightAware ADS-B
02:26PM 38.8085 -76.6271 42° Northeast 468 539 35,000  Level FlightAware ADS-B
02:27PM 38.8567 -76.5713 42° Northeast 467 537 35,000  Level FlightAware ADS-B
02:28PM 38.9109 -76.5086 42° Northeast 466 536 35,000  Level FlightAware ADS-B
02:28PM 38.9594 -76.4523 42° Northeast 464 534 35,000 -420 Level FlightAware ADS-B
02:29PM 39.0075 -76.3964 42° Northeast 462 532 34,600 -1,860 Descending FlightAware ADS-B
02:29PM 39.0594 -76.3361 42° Northeast 462 532 33,100 -3,000 Descending FlightAware ADS-B
02:30PM 39.1074 -76.2803 42° Northeast 466 536 31,500 -3,240 Descending FlightAware ADS-B
02:30PM 39.1637 -76.2146 42° Northeast 471 542 29,600 -3,000 Descending FlightAware ADS-B
02:31PM 39.2136 -76.1562 42° Northeast 466 536 28,200 -2,460 Descending FlightAware ADS-B
02:31PM 39.2613 -76.1003 42° Northeast 462 532 27,100 -1,200 Descending FlightAware ADS-B
02:32PM 39.3086 -76.0446 42° Northeast 457 526 27,000 -120 Descending FlightAware ADS-B
02:32PM 39.3560 -75.9887 42° Northeast 458 527 27,000  Level FlightAware ADS-B
02:33PM 39.4046 -75.9316 42° Northeast 462 532 27,000 -120 Level FlightAware ADS-B
02:33PM 39.4542 -75.8730 42° Northeast 459 528 26,900 -1,260 Descending FlightAware ADS-B
02:34PM 39.5015 -75.8169 42° Northeast 453 521 25,700 -2,400 Descending FlightAware ADS-B
02:34PM 39.5480 -75.7619 42° Northeast 446 513 24,500 -2,400 Descending FlightAware ADS-B
02:35PM 39.5943 -75.7068 43° Northeast 439 505 23,300 -2,280 Descending FlightAware ADS-B
02:35PM 39.6398 -75.6527 42° Northeast 431 496 22,200 -2,160 Descending FlightAware ADS-B
02:36PM 39.6845 -75.5994 43° Northeast 424 488 21,100 -2,280 Descending FlightAware ADS-B
02:36PM 39.7287 -75.5465 43° Northeast 417 480 19,900 -2,280 Descending FlightAware ADS-B
02:37PM 39.7718 -75.4944 43° Northeast 411 473 18,800 -2,100 Descending FlightAware ADS-B
02:37PM 39.8170 -75.4398 43° Northeast 403 464 17,700 -2,100 Descending FlightAware ADS-B
02:38PM 39.8613 -75.3861 43° Northeast 396 456 16,500 -2,160 Descending FlightAware ADS-B
02:38PM 39.9030 -75.3356 43° Northeast 388 447 15,400 -2,040 Descending FlightAware ADS-B
02:39PM 39.9421 -75.2882 43° Northeast 379 436 14,400 -2,100 Descending FlightAware ADS-B
02:39PM 39.9800 -75.2421 43° Northeast 371 427 13,300 -2,100 Descending FlightAware ADS-B
02:40PM 40.0214 -75.1916 43° Northeast 362 417 12,200 -1,740 Descending FlightAware ADS-B
02:41PM 40.0582 -75.1467 43° Northeast 349 402 11,500 -1,020 Descending FlightAware ADS-B
02:41PM 40.0936 -75.1037 43° Northeast 323 372 11,200 -540 Descending FlightAware ADS-B
02:42PM 40.1258 -75.0645 43° Northeast 299 344 11,000 -300 Descending FlightAware ADS-B
02:42PM 40.1556 -75.0278 43° Northeast 291 335 10,900 -840 Descending FlightAware ADS-B
02:43PM 40.1851 -74.9916 43° Northeast 287 330 10,200 -1,140 Descending FlightAware ADS-B
02:43PM 40.2027 -74.9698 43° Northeast 277 319 10,000 -900 Descending FlightAware ADS-B
02:43PM 40.2168 -74.9525 43° Northeast 274 315 9,700 -1,200 Descending FlightAware ADS-B
02:43PM 40.2308 -74.9352 43° Northeast 271 312 9,400 -1,200 Descending FlightAware ADS-B
02:44PM 40.2449 -74.9179 43° Northeast 270 311 9,100 -1,440 Descending FlightAware ADS-B
02:44PM 40.2535 -74.9072 44° Northeast 269 310 8,800 -1,440 Descending FlightAware ADS-B
02:44PM 40.2565 -74.9033 45° Northeast 269 310 8,800 -780 Level FlightAware ADS-B
02:44PM 40.2606 -74.8976 47° Northeast 270 311 8,700 -1,740 Descending FlightAware ADS-B
02:44PM 40.2745 -74.8782 47° Northeast 272 313 8,200 -1,320 Descending FlightAware ADS-B
02:44PM 40.2876 -74.8597 47° Northeast 272 313 8,000 -420 Descending FlightAware ADS-B
02:45PM 40.3011 -74.8409 47° Northeast 275 316 8,000  Level FlightAware ADS-B
02:45PM 40.3144 -74.8220 47° Northeast 279 321 8,000 -600 Level FlightAware ADS-B
02:45PM 40.3283 -74.8024 47° Northeast 280 322 7,700 -1,200 Descending FlightAware ADS-B
02:45PM 40.3418 -74.7835 47° Northeast 280 322 7,400 -1,200 Descending FlightAware ADS-B
02:46PM 40.3553 -74.7645 47° Northeast 280 322 7,100 -1,140 Descending FlightAware ADS-B
02:46PM 40.3702 -74.7435 47° Northeast 276 318 6,800 -900 Descending FlightAware ADS-B
02:46PM 40.3843 -74.7235 47° Northeast 274 315 6,600 -960 Descending FlightAware ADS-B
02:47PM 40.3978 -74.7044 47° Northeast 270 311 6,300 -1,080 Descending FlightAware ADS-B
02:47PM 40.4136 -74.6827 46° Northeast 267 307 6,000 -780 Descending FlightAware ADS-B
02:47PM 40.4191 -74.6769 39° Northeast 265 305 6,000  Level FlightAware ADS-B
02:47PM 40.4301 -74.6688 29° Northeast 263 303 6,000  Level FlightAware ADS-B
02:47PM 40.4385 -74.6650 19° North 262 302 6,000  Level FlightAware ADS-B
02:47PM 40.4478 -74.6624 12° North 260 299 6,000  Level FlightAware ADS-B
02:48PM 40.4658 -74.6578 11° North 262 302 6,000  Level FlightAware ADS-B
02:48PM 40.4875 -74.6517 12° North 262 302 6,000  Level FlightAware ADS-B
02:48PM 40.5102 -74.6450 13° North 262 302 6,000  Level FlightAware ADS-B
02:49PM 40.5301 -74.6398 11° North 262 302 6,000  Level FlightAware ADS-B
02:49PM 40.5548 -74.6338 10° North 259 298 6,000  Level FlightAware ADS-B
02:49PM 40.5952 -74.6234 11° North 260 299 6,000  Level FlightAware ADS-B
02:50PM 40.6212 -74.6165 11° North 263 303 6,000  Level FlightAware ADS-B
02:50PM 40.6402 -74.6114 12° North 263 303 6,000  Level FlightAware ADS-B
02:50PM 40.6599 -74.6061 12° North 262 302 6,000  Level FlightAware ADS-B
02:51PM 40.6799 -74.6007 12° North 263 303 6,000  Level FlightAware ADS-B
02:51PM 40.7019 -74.5948 11° North 263 303 6,000  Level FlightAware ADS-B
02:51PM 40.7201 -74.5899 12° North 266 306 6,000  Level FlightAware ADS-B
02:52PM 40.7552 -74.5800 12° North 265 305 6,000  Level FlightAware ADS-B
02:52PM 40.8020 -74.5480 27° Northeast 268 308 6,000  Level FlightAware
02:53PM 40.8360 -74.5190 33° Northeast 273 314 6,000 -300 Level FlightAware
02:53PM 40.8480 -74.5010 49° Northeast 272 313 5,800 -960 Descending FlightAware
02:54PM 40.8710 -74.4660 49° Northeast 271 312 5,300 -900 Descending FlightAware
02:54PM 40.8968 -74.4281 48° Northeast 269 310 5,000 -180 Descending FlightAware ADS-B
02:56PM 40.9370 -74.3100 66° East 269 310 5,000 -120 Level FlightAware
02:56PM 40.9390 -74.2950 80° East 269 310 4,900 -1,320 Descending FlightAware
02:56PM 40.9462 -74.2551 77° East 271 312 4,300 -720 Descending FlightAware ADS-B
02:57PM 40.9359 -74.1748 100° East 271 312 4,000 -300 Descending FlightAware ADS-B
02:57PM 40.9338 -74.1688 115° Southeast 218 251 4,000  Level FlightAware ADS-B
02:57PM 40.9275 -74.1509 115° Southeast 201 231 4,000  Level FlightAware ADS-B
02:58PM 40.9230 -74.1380 115° Southeast 194 223 4,000 -600 Level FlightAware ADS-B
02:58PM 40.9130 -74.1080 114° Southeast 187 215 3,600 -1,080 Descending FlightAware
02:58PM 40.9040 -74.0890 122° Southeast 186 214 3,100 -1,260 Descending FlightAware
02:59PM 40.8942 -74.0845 161° South 181 208 3,000 -360 Descending FlightAware ADS-B
02:59PM 40.8875 -74.0833 172° South 181 208 3,000  Level FlightAware ADS-B
02:59PM 40.8696 -74.0808 174° South 181 208 3,000  Level FlightAware ADS-B
02:59PM 40.8627 -74.0796 173° South 176 203 3,000 -360 Level FlightAware ADS-B
02:59PM 40.8546 -74.0781 172° South 178 205 2,900 -960 Descending FlightAware ADS-B
02:59PM 40.8517 -74.0773 168° South 179 206 2,800 -1,200 Descending FlightAware ADS-B
03:00PM 40.8465 -74.0755 165° South 178 205 2,700 -1,020 Descending FlightAware ADS-B
03:00PM 40.8421 -74.0740 166° South 179 206 2,600 -960 Descending FlightAware ADS-B
03:00PM 40.8362 -74.0745 184° South 177 204 2,500 -480 Descending FlightAware ADS-B
03:00PM 40.8325 -74.0761 198° South 167 192 2,500  Level FlightAware ADS-B
03:00PM 40.8300 -74.0775 203° Southwest 166 191 2,500  Level FlightAware ADS-B
03:00PM 40.8192 -74.0839 204° Southwest 168 193 2,500 -540 Level FlightAware ADS-B
03:01PM 40.7960 -74.0988 206° Southwest 174 200 2,100 -780 Descending FlightAware ADS-B
03:01PM 40.7905 -74.1023 206° Southwest 167 192 2,000 -780 Descending FlightAware ADS-B
03:01PM 40.7792 -74.1096 206° Southwest 168 193 1,800 -780 Descending FlightAware ADS-B
03:01PM 40.7732 -74.1133 205° Southwest 168 193 1,700 -1,080 Descending FlightAware ADS-B
03:01PM 40.7674 -74.1171 206° Southwest 166 191 1,500 -1,020 Descending FlightAware ADS-B
03:02PM 40.7574 -74.1235 206° Southwest 157 181 1,300 -900 Descending FlightAware ADS-B
03:02PM 40.7495 -74.1285 206° Southwest 148 170 1,100 -840 Descending FlightAware ADS-B
03:02PM 40.7438 -74.1322 206° Southwest 143 165 1,000 -420 Descending FlightAware ADS-B
03:02PM 40.7404 -74.1342 204° Southwest 143 165 1,000 -840 Level FlightAware ADS-B
03:02PM 40.7307 -74.1405 206° Southwest 143 165 700 -780 Descending FlightAware ADS-B
03:03PM 40.7021 -74.1586 206° Southwest 143 165 200 -660 Descending FlightAware ADS-B